Time;durP1;ratioP1;P1;durP2;ratioP2;P2;SDS_P1;SDS_P2;PMS_P1;PMS_P2;Temp;Humidity;BMP_temperature;BMP_pressure;BME280_temperature;BME280_humidity;BME280_pressure;Samples;Min_cycle;Max_cycle;Signal;HPM_P1;HPM_P2
2022/06/26 00:00:15;;;;;;;4.22;1.50;;;19.10;72.80;;;18.26;85.50;95763.84;5003004;28;20034;-64
2022/06/26 00:02:41;;;;;;;3.33;1.55;;;19.10;72.90;;;18.24;86.02;95772.06;5003628;28;20435;-63
2022/06/26 00:05:07;;;;;;;2.53;1.40;;;19.20;73.10;;;18.26;86.13;95774.47;5005770;28;20049;-64
2022/06/26 00:07:34;;;;;;;2.55;1.75;;;19.20;73.40;;;18.25;86.52;95779.00;5004383;28;20122;-64
2022/06/26 00:10:00;;;;;;;3.13;1.80;;;19.10;73.40;;;18.25;86.81;95775.53;4998407;28;20038;-63
2022/06/26 00:12:26;;;;;;;3.25;1.83;;;19.20;73.20;;;18.25;87.19;95763.03;5002869;28;20121;-64
2022/06/26 00:14:52;;;;;;;1.85;1.50;;;19.20;73.20;;;18.26;87.29;95782.47;4992761;28;20117;-64
2022/06/26 00:17:17;;;;;;;3.03;1.40;;;19.20;73.20;;;18.26;87.60;95783.28;5003365;28;20042;-63
2022/06/26 00:19:43;;;;;;;2.67;1.30;;;19.20;72.90;;;18.26;87.52;95788.59;5004678;28;20041;-63
2022/06/26 00:22:09;;;;;;;2.65;1.58;;;19.20;72.90;;;18.24;86.78;95793.38;4987887;28;20053;-63
2022/06/26 00:24:35;;;;;;;2.97;1.40;;;19.10;72.90;;;18.23;86.91;95793.63;5004642;28;20942;-64
2022/06/26 00:27:02;;;;;;;1.60;1.30;;;19.10;73.40;;;18.21;87.74;95796.53;4992278;28;20126;-63
2022/06/26 00:29:30;;;;;;;2.67;1.50;;;19.10;73.60;;;18.19;87.62;95793.31;4988962;28;20505;-64
2022/06/26 00:31:56;;;;;;;2.70;1.27;;;19.10;73.80;;;18.17;88.43;95795.41;5002652;28;20438;-63
2022/06/26 00:34:22;;;;;;;3.30;1.33;;;19.10;74.00;;;18.17;88.03;95800.72;4987028;28;20048;-63
2022/06/26 00:36:48;;;;;;;2.85;1.50;;;19.10;74.00;;;18.15;88.76;95802.81;5006294;28;20041;-64
2022/06/26 00:39:13;;;;;;;2.15;1.50;;;19.00;74.40;;;18.12;89.40;95792.66;5004421;28;20533;-64
2022/06/26 00:41:39;;;;;;;3.60;1.35;;;19.00;74.30;;;18.11;89.13;95799.03;5005872;28;20131;-63
2022/06/26 00:44:22;;;;;;;2.47;1.40;;;19.00;74.40;;;18.09;90.62;95793.13;5007480;28;20038;-64
2022/06/26 00:46:48;;;;;;;2.70;1.50;;;18.90;74.60;;;18.04;89.64;95798.38;4982272;28;20099;-64
2022/06/26 00:49:14;;;;;;;2.10;1.48;;;18.80;75.00;;;18.01;90.33;95797.03;5002050;28;20030;-64
2022/06/26 00:51:53;;;;;;;4.60;1.90;;;18.80;75.30;;;17.99;90.75;95787.66;5005710;28;20033;-64
2022/06/26 00:54:20;;;;;;;2.40;1.80;;;18.90;75.30;;;17.93;89.88;95786.78;5003944;28;20030;-64
2022/06/26 00:56:46;;;;;;;3.20;1.75;;;18.80;75.40;;;17.91;90.23;95790.75;4989035;28;20049;-64
2022/06/26 00:59:11;;;;;;;3.38;1.52;;;18.80;75.40;;;17.91;89.70;95793.41;5005152;28;20103;-64
2022/06/26 01:01:37;;;;;;;3.13;1.42;;;18.80;75.20;;;17.88;90.28;95801.84;5005735;28;20057;-64
2022/06/26 01:04:03;;;;;;;4.72;1.67;;;18.70;75.10;;;17.84;90.78;95795.41;4970895;28;20042;-64
2022/06/26 01:06:29;;;;;;;4.28;1.75;;;18.70;75.40;;;17.81;90.74;95795.88;5004776;28;20046;-63
2022/06/26 01:08:56;;;;;;;2.63;1.70;;;18.70;75.30;;;17.79;91.10;95797.97;4995767;28;20375;-65
2022/06/26 01:11:25;;;;;;;2.80;1.75;;;18.70;75.30;;;17.74;91.48;95796.84;5005933;28;20514;-69
2022/06/26 01:13:53;;;;;;;2.58;1.65;;;18.60;75.50;;;17.69;90.97;95794.13;4989660;28;20038;-64
2022/06/26 01:16:19;;;;;;;2.90;1.58;;;18.60;75.50;;;17.65;91.38;95797.44;4993649;28;20126;-64
2022/06/26 01:18:48;;;;;;;1.92;1.73;;;18.60;75.60;;;17.59;91.71;95793.09;4987789;28;20117;-65
2022/06/26 01:21:14;;;;;;;4.05;1.80;;;18.50;76.00;;;17.56;92.34;95794.38;4989289;28;20041;-64
2022/06/26 01:23:40;;;;;;;3.65;1.77;;;18.50;76.20;;;17.55;91.76;95792.78;5007051;28;20125;-64
2022/06/26 01:26:06;;;;;;;2.88;1.95;;;18.50;76.30;;;17.55;92.52;95795.44;5000015;28;20130;-64
2022/06/26 01:28:32;;;;;;;3.78;1.85;;;18.50;76.20;;;17.55;91.88;95791.97;5000984;28;20100;-65
2022/06/26 01:30:58;;;;;;;3.42;1.60;;;18.50;76.20;;;17.50;92.37;95795.34;5002102;28;20577;-64
2022/06/26 01:33:23;;;;;;;3.45;1.52;;;18.50;76.40;;;17.50;93.18;95795.34;5001896;28;20046;-65
2022/06/26 01:35:49;;;;;;;4.43;1.80;;;18.50;76.90;;;17.53;93.64;95794.88;5004637;28;20042;-65
2022/06/26 01:38:22;;;;;;;2.08;1.27;;;18.60;76.90;;;17.55;93.96;95791.97;5000106;28;20085;-64
2022/06/26 01:40:53;;;;;;;4.35;1.88;;;18.60;76.80;;;17.56;94.26;95798.91;4978436;28;20026;-65
2022/06/26 01:43:25;;;;;;;3.75;1.80;;;18.60;76.50;;;17.55;94.83;95792.78;5014189;28;20022;-64
2022/06/26 01:45:53;;;;;;;3.28;1.55;;;18.60;76.50;;;17.57;93.52;95801.31;5006092;28;20057;-64
2022/06/26 01:48:19;;;;;;;3.67;1.60;;;18.60;76.60;;;17.58;94.10;95802.94;5002715;28;20141;-64
2022/06/26 01:50:45;;;;;;;4.70;1.55;;;18.60;76.30;;;17.61;93.26;95796.31;5007030;28;20147;-64
2022/06/26 01:53:11;;;;;;;3.13;1.48;;;18.60;76.00;;;17.64;93.67;95807.28;4989152;28;20046;-64
2022/06/26 01:55:38;;;;;;;5.22;1.80;;;18.70;75.90;;;17.64;93.24;95809.94;5006754;28;20030;-64
2022/06/26 01:58:03;;;;;;;6.25;2.08;;;18.60;76.00;;;17.63;93.95;95810.19;5001924;28;20061;-64
2022/06/26 02:00:30;;;;;;;6.63;2.10;;;18.70;76.10;;;17.64;93.62;95803.81;5004287;28;20151;-64
2022/06/26 02:02:56;;;;;;;2.55;1.48;;;18.70;76.40;;;17.63;93.99;95803.00;5003504;28;20414;-64
2022/06/26 02:05:21;;;;;;;5.10;1.90;;;18.70;76.20;;;17.64;94.54;95799.31;5000832;28;20040;-64
2022/06/26 02:07:47;;;;;;;6.40;1.70;;;18.70;76.30;;;17.66;94.07;95804.41;5003596;28;20038;-64
2022/06/26 02:15:42;;;;;;;4.18;1.90;;;18.70;76.40;;;17.68;94.61;95819.13;5008680;28;20172;-64
2022/06/26 02:18:08;;;;;;;2.60;1.55;;;18.70;76.40;;;17.69;94.93;95828.69;4976084;28;20113;-65
2022/06/26 02:20:34;;;;;;;4.38;1.90;;;18.70;76.50;;;17.67;93.95;95828.13;5009733;28;20061;-65
2022/06/26 02:23:00;;;;;;;4.03;1.58;;;18.70;76.20;;;17.66;94.30;95836.34;5025565;28;20101;-65
2022/06/26 02:25:26;;;;;;;3.22;1.90;;;18.70;76.30;;;17.64;94.75;95838.41;5005975;28;20038;-63
2022/06/26 02:27:51;;;;;;;3.53;2.05;;;18.70;76.20;;;17.60;94.15;95838.06;4994221;28;20072;-64
2022/06/26 02:30:17;;;;;;;4.88;2.10;;;18.70;76.30;;;17.58;94.34;95834.84;4992341;28;20073;-64
2022/06/26 02:32:43;;;;;;;3.45;2.00;;;18.60;76.60;;;17.56;95.14;95836.13;4992499;28;20478;-63
2022/06/26 02:35:09;;;;;;;2.65;1.60;;;18.60;76.60;;;17.55;94.58;95835.31;4989774;28;20072;-64
2022/06/26 02:37:35;;;;;;;3.67;2.00;;;18.70;76.70;;;17.57;95.29;95830.56;5006267;28;20505;-63
2022/06/26 02:40:01;;;;;;;3.35;1.65;;;18.70;76.70;;;17.58;94.59;95829.53;5004769;28;20065;-64
2022/06/26 02:42:27;;;;;;;2.10;1.75;;;18.70;76.50;;;17.61;95.21;95844.19;5009324;28;20037;-64
2022/06/26 02:44:52;;;;;;;3.20;1.60;;;18.70;76.40;;;17.61;95.28;95844.19;4990543;28;20034;-64
2022/06/26 02:47:18;;;;;;;3.80;1.90;;;18.70;76.40;;;17.62;94.58;95835.97;4989706;28;20053;-64
2022/06/26 02:49:44;;;;;;;2.42;2.00;;;18.60;76.50;;;17.61;94.88;95834.38;5008968;28;20421;-64
2022/06/26 02:52:10;;;;;;;2.72;2.25;;;18.60;76.70;;;17.60;95.50;95835.41;5006329;28;20535;-65
2022/06/26 02:54:36;;;;;;;4.70;2.30;;;18.60;76.70;;;17.61;95.56;95838.88;4986730;28;20042;-64
2022/06/26 02:57:01;;;;;;;3.72;1.95;;;18.70;76.60;;;17.64;95.52;95849.03;5024190;28;20052;-64
2022/06/26 02:59:27;;;;;;;4.07;2.00;;;18.70;76.50;;;17.64;94.93;95855.16;5007132;28;20038;-64
2022/06/26 03:01:53;;;;;;;4.85;2.03;;;18.70;76.70;;;17.64;94.90;95854.34;5008734;28;20035;-64
2022/06/26 03:04:19;;;;;;;2.92;1.90;;;18.70;76.60;;;17.65;95.40;95856.81;5009521;28;20045;-65
2022/06/26 03:06:45;;;;;;;4.97;2.10;;;18.70;76.60;;;17.66;95.39;95869.06;5007155;28;20026;-64
2022/06/26 03:09:11;;;;;;;4.60;1.90;;;18.70;76.70;;;17.66;96.11;95876.22;5009342;28;20072;-64
2022/06/26 03:11:37;;;;;;;3.28;2.33;;;18.70;76.80;;;17.65;95.95;95878.09;5007929;28;20033;-64
2022/06/26 03:14:02;;;;;;;3.00;2.05;;;18.70;76.90;;;17.64;96.39;95887.06;5008709;28;20069;-65
2022/06/26 03:16:28;;;;;;;3.53;2.17;;;18.70;77.10;;;17.65;96.44;95888.72;5009265;28;20044;-64
2022/06/26 03:18:54;;;;;;;6.68;2.50;;;18.70;77.60;;;17.62;97.44;95883.84;5007787;28;20506;-65
2022/06/26 03:21:19;;;;;;;3.97;2.40;;;18.70;77.70;;;17.61;97.37;95881.44;5006605;28;20031;-63
2022/06/26 03:24:04;;;;;;;2.92;2.28;;;18.70;77.50;;;17.64;97.24;95887.06;5009644;28;20034;-65
2022/06/26 03:26:34;;;;;;;4.80;2.35;;;18.80;77.40;;;17.66;97.97;95890.34;4994210;28;20048;-66
2022/06/26 03:29:00;;;;;;;3.85;2.10;;;18.70;78.00;;;17.67;98.67;95881.34;5006334;28;20038;-65
2022/06/26 03:31:26;;;;;;;3.33;2.20;;;18.80;78.00;;;17.68;98.51;95887.47;5007386;28;20528;-65
2022/06/26 03:33:52;;;;;;;5.05;2.50;;;18.80;78.10;;;17.72;98.89;95888.59;5006473;28;20073;-65
2022/06/26 03:36:18;;;;;;;5.35;2.25;;;18.80;78.20;;;17.71;99.06;95887.78;4976942;28;20124;-65
2022/06/26 03:38:44;;;;;;;3.42;2.20;;;18.90;78.30;;;17.69;99.22;95879.25;5009822;28;20054;-65
2022/06/26 03:41:10;;;;;;;4.57;2.38;;;18.80;78.40;;;17.69;100.00;95889.06;5008616;28;20136;-65
2022/06/26 03:43:36;;;;;;;4.70;2.30;;;18.80;78.40;;;17.71;100.00;95887.78;5005498;28;20034;-65
2022/06/26 03:46:02;;;;;;;5.22;2.28;;;18.90;78.50;;;17.71;100.00;95887.78;5007625;28;20049;-65
2022/06/26 03:48:28;;;;;;;6.05;2.40;;;18.90;78.60;;;17.75;100.00;95882.78;5006726;28;20113;-65
2022/06/26 03:50:53;;;;;;;4.72;2.50;;;18.90;78.60;;;17.77;99.88;95880.69;5005877;28;20526;-65
2022/06/26 03:53:19;;;;;;;3.92;1.95;;;19.00;78.50;;;17.77;100.00;95875.38;5006395;28;20061;-64
2022/06/26 03:55:45;;;;;;;4.68;2.33;;;19.00;78.50;;;17.77;100.00;95879.88;5005064;28;20030;-65
2022/06/26 03:58:11;;;;;;;3.95;2.17;;;19.00;78.90;;;17.77;100.00;95877.22;5005044;28;20066;-65
2022/06/26 04:00:36;;;;;;;6.05;2.38;;;18.90;79.30;;;17.77;100.00;95874.56;5006461;28;20073;-65
2022/06/26 04:03:04;;;;;;;6.88;2.47;;;18.90;79.30;;;17.74;100.00;95871.34;4991196;28;20389;-65
2022/06/26 04:05:30;;;;;;;4.10;2.30;;;18.90;79.40;;;17.76;100.00;95879.09;4988821;28;20140;-65
2022/06/26 04:07:56;;;;;;;6.05;1.90;;;18.90;79.10;;;17.79;100.00;95883.13;4990084;28;20037;-65
2022/06/26 04:10:22;;;;;;;12.00;2.72;;;19.00;78.80;;;17.85;100.00;95898.13;5005371;28;20038;-65
2022/06/26 04:12:47;;;;;;;4.20;2.38;;;19.10;78.20;;;17.89;100.00;95901.94;5004916;28;20032;-63
2022/06/26 04:15:13;;;;;;;3.95;2.35;;;19.10;77.80;;;17.93;99.71;95905.72;5007507;28;20069;-64
2022/06/26 04:17:39;;;;;;;3.78;2.53;;;19.10;77.70;;;17.94;100.00;95904.69;5008144;28;20125;-64
2022/06/26 04:20:06;;;;;;;5.13;2.50;;;19.20;77.40;;;18.00;99.53;95895.72;4990463;28;20124;-63
2022/06/26 04:22:31;;;;;;;6.55;2.60;;;19.30;77.30;;;18.03;100.00;95911.22;5004510;28;20117;-64
2022/06/26 04:24:57;;;;;;;4.30;1.98;;;19.30;78.00;;;18.05;100.00;95909.13;5006968;28;20069;-64
2022/06/26 04:27:23;;;;;;;6.10;2.10;;;19.20;78.30;;;18.06;100.00;95910.72;5006074;28;20465;-66
2022/06/26 04:29:48;;;;;;;3.03;2.30;;;19.30;78.00;;;18.06;100.00;95906.22;5003267;28;20418;-65
2022/06/26 04:32:14;;;;;;;4.90;2.67;;;19.30;78.00;;;18.06;100.00;95902.75;5000931;28;20471;-64
2022/06/26 04:34:41;;;;;;;7.22;2.35;;;19.20;77.90;;;18.08;100.00;95903.31;5008288;28;20523;-63
2022/06/26 04:37:06;;;;;;;6.40;1.90;;;19.30;78.10;;;18.12;100.00;95907.13;4973241;28;20050;-64
2022/06/26 04:39:32;;;;;;;7.43;2.00;;;19.40;78.00;;;18.17;100.00;95901.06;5003965;28;20081;-64
2022/06/26 04:41:58;;;;;;;3.67;2.20;;;19.50;77.80;;;18.20;100.00;95901.41;5005529;28;20119;-63
2022/06/26 04:44:24;;;;;;;5.30;2.30;;;19.50;77.50;;;18.25;99.92;95906.00;5003372;28;21583;-63
2022/06/26 04:46:50;;;;;;;6.40;2.25;;;19.60;77.30;;;18.29;100.00;95910.59;5003737;28;20461;-63
2022/06/26 04:49:15;;;;;;;8.70;2.92;;;19.60;77.30;;;18.30;99.82;95901.56;4974395;28;20498;-66
2022/06/26 04:51:41;;;;;;;5.35;2.70;;;19.60;75.90;;;18.31;97.98;95908.50;5003990;28;20033;-64
2022/06/26 04:54:08;;;;;;;3.78;2.35;;;19.60;75.80;;;18.35;97.72;95914.16;5005373;28;20056;-64
2022/06/26 04:56:34;;;;;;;5.28;2.55;;;19.60;75.80;;;18.40;98.18;95916.09;5003022;28;20042;-64
2022/06/26 04:59:00;;;;;;;4.97;2.45;;;19.70;76.20;;;18.44;97.98;95917.22;4972489;28;20129;-65
2022/06/26 05:01:26;;;;;;;5.60;2.50;;;19.80;76.10;;;18.47;98.76;95916.72;5005568;28;20084;-65
2022/06/26 05:03:52;;;;;;;4.10;2.42;;;19.80;76.00;;;18.52;98.38;95919.47;5001046;28;20524;-65
2022/06/26 05:06:18;;;;;;;4.75;3.00;;;19.90;75.40;;;18.53;97.62;95915.75;5003850;28;20117;-64
2022/06/26 05:08:43;;;;;;;5.10;2.20;;;19.80;75.40;;;18.57;96.73;95919.56;5004301;28;20095;-66
2022/06/26 05:11:09;;;;;;;5.10;2.50;;;20.00;75.10;;;18.61;97.08;95912.69;4991002;28;20121;-64
2022/06/26 05:13:35;;;;;;;3.33;2.30;;;20.10;75.00;;;18.68;97.08;95913.34;5004226;28;20061;-64
2022/06/26 05:16:00;;;;;;;3.65;2.60;;;20.10;75.00;;;18.72;96.85;95914.47;5006333;28;20057;-65
2022/06/26 05:18:26;;;;;;;4.00;2.65;;;20.10;75.10;;;18.78;97.62;95918.00;5004155;28;20052;-67
2022/06/26 05:20:52;;;;;;;2.75;2.28;;;20.30;74.70;;;18.80;96.62;95916.75;5003891;28;20088;-65
2022/06/26 05:23:18;;;;;;;3.75;2.70;;;20.20;74.90;;;18.86;97.23;95914.94;4988024;28;20482;-65
2022/06/26 05:25:44;;;;;;;5.22;2.60;;;20.30;74.30;;;18.89;95.53;95914.44;4984299;28;20065;-64
2022/06/26 05:28:10;;;;;;;4.00;3.05;;;20.30;73.50;;;18.92;94.18;95913.97;5003420;28;20038;-64
2022/06/26 05:30:36;;;;;;;3.63;2.92;;;20.40;72.70;;;18.95;94.51;95910.78;5007752;28;20053;-65
2022/06/26 05:33:02;;;;;;;4.75;3.00;;;20.40;72.60;;;19.00;93.87;95915.38;4999096;28;20034;-64
2022/06/26 05:35:28;;;;;;;4.10;2.60;;;20.50;72.80;;;19.08;94.30;95917.66;5005201;28;20176;-63
2022/06/26 05:37:53;;;;;;;6.32;2.80;;;20.60;73.10;;;19.19;94.82;95911.38;5003240;28;20039;-63
2022/06/26 05:40:19;;;;;;;3.78;2.28;;;20.80;73.60;;;19.31;94.96;95922.75;4985436;28;20530;-64
2022/06/26 05:42:45;;;;;;;3.10;2.63;;;21.00;73.50;;;19.43;95.12;95920.75;4986899;28;20046;-66
2022/06/26 05:45:11;;;;;;;5.05;2.60;;;21.10;73.10;;;19.57;94.14;95922.03;5006994;28;20108;-64
2022/06/26 05:47:36;;;;;;;3.45;2.40;;;21.40;71.80;;;19.77;94.62;95925.97;5009378;28;20129;-64
2022/06/26 05:50:03;;;;;;;2.83;2.30;;;21.60;71.90;;;19.94;94.00;95924.03;4993258;28;20564;-65
2022/06/26 05:52:29;;;;;;;3.53;2.35;;;21.80;70.20;;;20.13;93.20;95917.25;5008000;28;20490;-67
2022/06/26 05:54:54;;;;;;;5.25;1.92;;;22.10;70.40;;;20.34;93.10;95922.75;5007273;28;20033;-64
2022/06/26 05:57:20;;;;;;;4.00;2.15;;;22.30;68.90;;;20.51;89.89;95926.16;5009208;28;20057;-66
2022/06/26 05:59:49;;;;;;;4.53;1.88;;;22.50;66.70;;;20.65;87.47;95931.88;4995181;28;20031;-65
2022/06/26 06:02:15;;;;;;;3.67;2.28;;;22.40;66.40;;;20.75;87.49;95932.72;4989888;28;20034;-64
2022/06/26 06:04:40;;;;;;;5.88;1.73;;;22.50;66.60;;;20.80;86.90;95930.09;5004708;28;20066;-65
2022/06/26 06:07:06;;;;;;;5.65;2.83;;;22.50;65.60;;;20.85;85.01;95925.88;4975456;28;20037;-64
2022/06/26 06:09:32;;;;;;;3.65;2.25;;;22.50;65.50;;;20.90;84.53;95929.38;5007711;28;20497;-65
2022/06/26 06:11:58;;;;;;;3.65;1.85;;;22.60;65.30;;;20.91;83.33;95930.97;5007711;28;20038;-65
2022/06/26 06:14:24;;;;;;;2.58;1.77;;;22.50;64.20;;;20.92;82.11;95931.78;4992868;28;20029;-65
2022/06/26 06:16:50;;;;;;;4.22;1.77;;;22.40;63.40;;;20.91;81.63;95930.16;5010489;28;20034;-65
2022/06/26 06:19:15;;;;;;;3.65;2.00;;;22.40;63.90;;;20.91;81.63;95924.81;5021545;28;20045;-65
2022/06/26 06:21:41;;;;;;;4.10;2.05;;;22.30;64.30;;;20.93;81.46;95928.03;5010814;28;20053;-65
2022/06/26 06:24:07;;;;;;;3.83;1.83;;;22.50;64.70;;;20.96;81.84;95933.66;5010493;28;20050;-65
2022/06/26 06:26:33;;;;;;;3.00;1.80;;;22.50;64.60;;;21.00;81.43;95933.97;4995025;28;20447;-65
2022/06/26 06:28:58;;;;;;;3.10;2.00;;;22.60;63.80;;;21.05;82.13;95936.69;5003494;28;20473;-65
2022/06/26 06:31:24;;;;;;;4.88;2.05;;;22.80;64.10;;;21.16;80.84;95934.84;4993025;28;20031;-65
2022/06/26 06:33:50;;;;;;;3.08;1.80;;;23.20;61.90;;;21.30;81.35;95939.53;4996992;28;20053;-65
2022/06/26 06:36:16;;;;;;;3.95;1.88;;;23.60;62.20;;;21.51;81.76;95935.06;4991685;28;20383;-65
2022/06/26 06:38:42;;;;;;;2.95;1.67;;;24.10;62.00;;;21.77;81.17;95938.63;5005798;28;20045;-65
2022/06/26 06:41:07;;;;;;;3.42;1.48;;;24.40;60.30;;;22.02;81.34;95940.56;5011882;28;20038;-66
2022/06/26 06:43:33;;;;;;;4.38;2.70;;;24.70;60.10;;;22.23;80.65;95942.25;5010081;28;20029;-65
2022/06/26 06:45:59;;;;;;;10.25;2.40;;;24.90;58.90;;;22.39;79.11;95935.00;5010834;28;20513;-66
2022/06/26 06:48:25;;;;;;;3.63;2.00;;;24.80;58.10;;;22.51;78.40;95938.22;5005977;28;20176;-66
2022/06/26 06:50:52;;;;;;;1.90;1.55;;;24.60;58.50;;;22.54;77.16;95943.06;4988264;28;20132;-66
2022/06/26 06:53:18;;;;;;;3.35;1.60;;;24.50;59.20;;;22.56;76.94;95940.91;5010825;28;20555;-65
2022/06/26 06:55:44;;;;;;;3.42;1.80;;;24.40;59.40;;;22.54;76.42;95942.25;5010575;28;20117;-66
2022/06/26 06:58:10;;;;;;;3.22;1.60;;;24.20;59.30;;;22.51;76.13;95932.88;5007006;28;20038;-66
2022/06/26 07:00:36;;;;;;;2.40;1.70;;;24.20;60.30;;;22.50;77.20;95936.63;5009139;28;20032;-66
2022/06/26 07:03:03;;;;;;;4.45;2.17;;;24.10;61.80;;;22.49;76.92;95939.56;4991969;28;20405;-65
2022/06/26 07:05:29;;;;;;;3.95;2.15;;;24.10;60.80;;;22.47;77.21;95933.69;4978129;28;20031;-65
2022/06/26 07:07:55;;;;;;;2.33;1.70;;;24.10;61.00;;;22.44;76.81;95939.59;5010229;28;20033;-66
2022/06/26 07:10:21;;;;;;;1.98;1.55;;;24.30;60.20;;;22.50;76.20;95930.47;5009037;28;20061;-66
2022/06/26 07:12:58;;;;;;;4.55;2.03;;;24.70;59.20;;;22.58;76.30;95938.75;5010090;28;20486;-65
2022/06/26 07:15:24;;;;;;;3.30;1.65;;;25.00;58.90;;;22.69;76.21;95933.41;4978047;28;20038;-66
2022/06/26 07:17:50;;;;;;;3.78;1.70;;;25.30;57.50;;;22.80;76.81;95937.69;4993588;28;20049;-66
2022/06/26 07:20:16;;;;;;;1.95;1.35;;;25.60;57.80;;;22.97;77.13;95935.53;5009560;28;20029;-66
2022/06/26 07:22:42;;;;;;;2.95;1.80;;;25.80;57.80;;;23.12;76.08;95940.09;4977994;28;20022;-67
2022/06/26 07:25:08;;;;;;;2.33;1.50;;;25.90;56.30;;;23.27;76.25;95928.50;5009217;28;20111;-66
2022/06/26 07:27:33;;;;;;;2.20;1.50;;;26.10;56.10;;;23.42;75.24;95936.50;5001646;28;20038;-66
2022/06/26 07:29:59;;;;;;;2.33;1.35;;;26.40;56.00;;;23.58;74.61;95940.78;5010546;28;20042;-66
2022/06/26 07:32:27;;;;;;;2.42;1.50;;;26.60;54.70;;;23.75;74.08;95937.72;5009708;28;20030;-66
2022/06/26 07:34:53;;;;;;;2.30;1.35;;;26.90;53.60;;;23.94;73.73;95930.63;4993730;28;20049;-66
2022/06/26 07:37:19;;;;;;;3.55;1.48;;;27.20;52.60;;;24.09;72.38;95929.75;5009727;28;20041;-67
2022/06/26 07:39:45;;;;;;;2.33;1.40;;;27.30;51.60;;;24.25;71.86;95928.59;5008765;28;20121;-65
2022/06/26 07:42:10;;;;;;;1.83;1.40;;;27.50;51.20;;;24.41;71.31;95932.78;4987309;28;20548;-65
2022/06/26 07:44:36;;;;;;;3.55;1.48;;;27.80;50.90;;;24.58;70.29;95936.97;5010706;28;20516;-66
2022/06/26 07:47:02;;;;;;;2.15;1.60;;;28.10;50.10;;;24.71;69.75;95939.00;5007106;28;20120;-66
2022/06/26 07:49:28;;;;;;;1.73;1.45;;;28.10;49.80;;;24.85;69.02;95934.56;4988898;28;20103;-65
2022/06/26 07:51:53;;;;;;;2.42;1.10;;;28.20;48.70;;;24.95;68.54;95936.38;5003626;28;20520;-65
2022/06/26 07:54:19;;;;;;;1.67;1.30;;;28.40;49.00;;;25.09;68.59;95931.94;5010530;28;20112;-65
2022/06/26 07:56:46;;;;;;;2.35;1.30;;;28.60;49.40;;;25.26;68.66;95928.81;5010679;28;20057;-66
2022/06/26 07:59:12;;;;;;;2.50;1.40;;;28.80;49.30;;;25.40;68.75;95931.63;5002049;28;20042;-65
2022/06/26 08:01:38;;;;;;;1.63;1.20;;;29.00;49.50;;;25.54;68.12;95927.94;5009228;28;20033;-66
2022/06/26 08:04:04;;;;;;;1.95;1.23;;;29.10;47.50;;;25.72;66.67;95925.59;5012755;28;20124;-65
2022/06/26 08:06:29;;;;;;;2.42;1.25;;;29.20;47.20;;;25.94;65.37;95928.53;5007932;28;20034;-65
2022/06/26 08:08:56;;;;;;;2.75;1.13;;;29.40;45.80;;;25.97;65.34;95911.78;5008416;28;20091;-65
2022/06/26 08:11:22;;;;;;;2.25;1.15;;;29.30;47.00;;;26.14;65.21;95914.78;5008699;28;20034;-65
2022/06/26 08:13:48;;;;;;;1.58;1.15;;;29.70;47.20;;;26.35;64.96;95919.91;5001803;28;20586;-65
2022/06/26 08:16:14;;;;;;;1.70;1.30;;;29.90;46.50;;;26.52;65.19;95907.47;5008160;28;20037;-65
2022/06/26 08:18:40;;;;;;;2.35;1.13;;;30.20;46.70;;;26.74;65.50;95911.44;5008474;28;20038;-67
2022/06/26 08:23:51;;;;;;;1.88;1.20;;;30.60;44.40;;;27.12;62.94;95906.72;5009994;28;20418;-66
2022/06/26 08:26:17;;;;;;;2.50;1.30;;;31.00;44.60;;;27.27;61.66;95898.34;5007174;28;20082;-66
2022/06/26 08:28:42;;;;;;;1.98;1.30;;;31.10;41.90;;;27.43;61.02;95896.94;4999335;28;20022;-65
2022/06/26 08:31:08;;;;;;;1.70;1.30;;;31.30;42.70;;;27.59;60.48;95896.59;4991858;28;20141;-64
2022/06/26 08:33:34;;;;;;;2.67;1.20;;;31.50;43.30;;;27.80;60.68;95884.28;5008556;28;20041;-66
2022/06/26 08:36:00;;;;;;;3.55;1.25;;;31.70;43.00;;;28.00;60.42;95883.84;5009604;28;20482;-66
2022/06/26 08:38:25;;;;;;;1.50;0.88;;;32.00;42.30;;;28.21;58.94;95886.09;5007836;28;20026;-65
2022/06/26 08:40:51;;;;;;;1.65;0.98;;;32.20;41.10;;;28.42;58.25;95889.94;5003570;28;20409;-65
2022/06/26 08:43:20;;;;;;;4.60;1.45;;;32.40;40.80;;;28.66;57.80;95895.03;5001079;28;20458;-63
2022/06/26 08:45:46;;;;;;;1.88;0.98;;;32.70;40.40;;;28.85;57.23;95897.53;4972037;28;20514;-64
2022/06/26 08:48:12;;;;;;;3.33;1.05;;;32.80;39.10;;;29.03;56.59;95893.84;4985980;28;20069;-64
2022/06/26 08:50:38;;;;;;;1.33;0.80;;;33.00;39.30;;;29.27;56.44;95894.28;5001963;28;20128;-64
2022/06/26 08:53:04;;;;;;;1.95;1.23;;;33.10;38.80;;;29.50;56.13;95886.09;5005988;28;20030;-63
2022/06/26 08:55:30;;;;;;;1.70;1.00;;;33.30;40.40;;;29.79;55.74;95888.22;5004014;28;20563;-62
2022/06/26 08:57:55;;;;;;;1.52;1.05;;;33.50;39.60;;;30.06;55.56;95881.72;4972928;28;20069;-65
2022/06/26 09:00:21;;;;;;;2.63;0.90;;;33.70;39.80;;;30.27;54.40;95884.59;4985856;28;20073;-64
2022/06/26 09:02:47;;;;;;;0.93;0.75;;;33.70;38.10;;;30.47;52.80;95882.03;5004991;28;20034;-64
2022/06/26 09:05:12;;;;;;;1.45;0.68;;;33.90;38.50;;;30.72;53.17;95877.72;5001980;28;20045;-65
2022/06/26 09:07:49;;;;;;;3.38;1.00;;;33.90;38.40;;;30.96;50.56;95874.44;5005251;28;20099;-66
2022/06/26 09:10:18;;;;;;;2.30;0.98;;;34.20;38.90;;;31.17;52.34;95877.28;4970457;28;20030;-66
2022/06/26 09:12:53;;;;;;;0.73;0.70;;;34.40;38.20;;;31.30;47.86;95875.47;5005115;28;20037;-65
2022/06/26 09:15:20;;;;;;;4.60;1.08;;;34.30;37.20;;;31.47;50.81;95878.13;5002239;28;20035;-67
2022/06/26 09:18:03;;;;;;;0.95;0.70;;;34.60;37.90;;;31.71;48.04;95873.97;4992218;28;20386;-66
2022/06/26 09:20:30;;;;;;;4.15;0.90;;;34.80;37.10;;;31.82;49.18;95872.50;4999187;28;20061;-67
2022/06/26 09:22:58;;;;;;;2.58;0.90;;;34.80;36.70;;;32.03;48.45;95880.66;4988862;28;20026;-65
2022/06/26 09:25:45;;;;;;;8.30;0.90;;;35.10;35.90;;;32.24;46.11;95873.28;4982814;28;20112;-65
2022/06/26 09:28:20;;;;;;;2.50;0.68;;;35.30;36.30;;;32.39;46.86;95872.72;4984483;28;20074;-66
2022/06/26 09:30:56;;;;;;;2.72;0.90;;;35.50;36.70;;;32.52;46.15;95876.28;5004212;28;20124;-65
2022/06/26 09:33:28;;;;;;;3.03;1.00;;;35.50;36.20;;;32.64;45.68;95864.63;4996003;28;20073;-63
2022/06/26 09:35:55;;;;;;;0.60;0.60;;;35.60;36.10;;;32.72;46.69;95880.88;4998104;28;20046;-64
2022/06/26 09:38:26;;;;;;;1.15;0.60;;;35.60;34.90;;;32.81;44.41;95862.53;4998645;28;20045;-64
2022/06/26 09:41:00;;;;;;;2.22;0.88;;;35.80;33.60;;;33.00;45.35;95864.72;5004839;28;20038;-64
2022/06/26 09:43:29;;;;;;;2.58;1.02;;;36.10;35.60;;;33.18;44.72;95874.31;5005732;28;20061;-63
2022/06/26 09:45:56;;;;;;;2.60;0.80;;;36.30;35.00;;;33.35;45.35;95878.78;5003067;28;20042;-66
2022/06/26 09:48:24;;;;;;;0.90;0.70;;;36.50;35.00;;;33.51;44.80;95873.44;5005521;28;20026;-65
2022/06/26 09:50:50;;;;;;;3.40;0.70;;;36.60;33.70;;;33.69;44.14;95879.44;5004769;28;20034;-66
2022/06/26 09:53:16;;;;;;;5.20;1.00;;;37.00;33.70;;;33.88;43.72;95868.75;5005882;28;20054;-67
2022/06/26 09:55:42;;;;;;;4.10;0.80;;;37.30;33.30;;;34.05;43.44;95871.22;5004635;28;20034;-67
2022/06/26 09:58:08;;;;;;;1.92;0.70;;;37.50;32.80;;;34.25;42.75;95874.13;5004077;28;20037;-67
2022/06/26 10:00:35;;;;;;;4.15;0.80;;;37.70;31.50;;;34.44;41.76;95876.25;5001886;28;20033;-67
2022/06/26 10:08:35;;;;;;;0.85;0.50;;;38.70;30.30;;;35.13;41.04;95856.66;4988231;28;20045;-65
2022/06/26 10:11:01;;;;;;;0.70;0.50;;;39.00;28.70;;;35.42;40.38;95857.38;4998444;28;20042;-64
2022/06/26 10:13:27;;;;;;;0.82;0.52;;;39.30;28.70;;;35.75;39.86;95863.22;5003772;28;20054;-66
2022/06/26 10:16:31;;;;;;;0.45;0.45;;;39.50;28.50;;;36.07;35.87;95860.44;4988676;28;20466;-66
2022/06/26 10:19:25;;;;;;;0.80;0.43;;;39.80;27.60;;;36.52;35.83;95862.56;5004610;28;20069;-66
2022/06/26 10:21:51;;;;;;;1.63;0.60;;;40.10;28.70;;;36.73;37.89;95853.94;5003850;28;20133;-65
2022/06/26 10:24:16;;;;;;;0.60;0.50;;;40.30;28.20;;;36.99;37.13;95862.28;5002282;28;20458;-65
2022/06/26 10:26:53;;;;;;;0.50;0.50;;;40.60;28.00;;;37.28;34.04;95849.88;5019321;28;20109;-66
2022/06/26 10:29:19;;;;;;;0.47;0.40;;;41.00;26.80;;;37.56;36.19;95846.78;5005257;28;20034;-66